sensor_id;sensor_type;location;lat;lon;timestamp;P1;durP1;ratioP1;P2;durP2;ratioP2
61036;SDS011;72210;47.076;15.430;2024-02-21T00:00:16;0.55;;;0.55;;
61036;SDS011;72210;47.076;15.430;2024-02-21T00:02:44;0.80;;;0.60;;
61036;SDS011;72210;47.076;15.430;2024-02-21T00:05:11;0.60;;;0.60;;
61036;SDS011;72210;47.076;15.430;2024-02-21T00:07:41;0.60;;;0.50;;
61036;SDS011;72210;47.076;15.430;2024-02-21T00:10:08;0.60;;;0.60;;
61036;SDS011;72210;47.076;15.430;2024-02-21T00:12:36;0.60;;;0.52;;
61036;SDS011;72210;47.076;15.430;2024-02-21T00:15:03;0.73;;;0.60;;
61036;SDS011;72210;47.076;15.430;2024-02-21T00:17:32;0.60;;;0.50;;
61036;SDS011;72210;47.076;15.430;2024-02-21T00:20:00;0.60;;;0.50;;
61036;SDS011;72210;47.076;15.430;2024-02-21T00:22:28;0.57;;;0.50;;
61036;SDS011;72210;47.076;15.430;2024-02-21T00:24:55;0.60;;;0.50;;
61036;SDS011;72210;47.076;15.430;2024-02-21T00:27:22;0.70;;;0.60;;
61036;SDS011;72210;47.076;15.430;2024-02-21T00:29:50;0.60;;;0.50;;
61036;SDS011;72210;47.076;15.430;2024-02-21T00:32:18;0.70;;;0.60;;
61036;SDS011;72210;47.076;15.430;2024-02-21T00:34:48;0.60;;;0.50;;
61036;SDS011;72210;47.076;15.430;2024-02-21T00:37:15;0.60;;;0.50;;
61036;SDS011;72210;47.076;15.430;2024-02-21T00:39:46;0.60;;;0.50;;
61036;SDS011;72210;47.076;15.430;2024-02-21T00:42:13;0.60;;;0.60;;
61036;SDS011;72210;47.076;15.430;2024-02-21T00:44:40;0.68;;;0.60;;
61036;SDS011;72210;47.076;15.430;2024-02-21T00:47:09;0.60;;;0.55;;
61036;SDS011;72210;47.076;15.430;2024-02-21T00:49:37;0.70;;;0.60;;
61036;SDS011;72210;47.076;15.430;2024-02-21T00:52:07;0.63;;;0.60;;
61036;SDS011;72210;47.076;15.430;2024-02-21T00:54:35;0.60;;;0.50;;
61036;SDS011;72210;47.076;15.430;2024-02-21T00:57:16;0.60;;;0.50;;
61036;SDS011;72210;47.076;15.430;2024-02-21T00:59:43;0.60;;;0.50;;
61036;SDS011;72210;47.076;15.430;2024-02-21T01:02:11;0.50;;;0.50;;
61036;SDS011;72210;47.076;15.430;2024-02-21T01:04:39;0.70;;;0.52;;
61036;SDS011;72210;47.076;15.430;2024-02-21T01:07:08;0.50;;;0.50;;
61036;SDS011;72210;47.076;15.430;2024-02-21T01:09:38;0.60;;;0.50;;
61036;SDS011;72210;47.076;15.430;2024-02-21T01:12:06;0.50;;;0.50;;
61036;SDS011;72210;47.076;15.430;2024-02-21T01:14:35;0.63;;;0.60;;
61036;SDS011;72210;47.076;15.430;2024-02-21T01:17:04;0.50;;;0.50;;
61036;SDS011;72210;47.076;15.430;2024-02-21T01:19:31;0.60;;;0.50;;
61036;SDS011;72210;47.076;15.430;2024-02-21T01:21:59;0.60;;;0.50;;
61036;SDS011;72210;47.076;15.430;2024-02-21T01:24:28;0.60;;;0.60;;
61036;SDS011;72210;47.076;15.430;2024-02-21T01:26:55;0.50;;;0.50;;
61036;SDS011;72210;47.076;15.430;2024-02-21T01:29:23;0.60;;;0.50;;
61036;SDS011;72210;47.076;15.430;2024-02-21T01:31:50;0.70;;;0.60;;
61036;SDS011;72210;47.076;15.430;2024-02-21T01:34:18;0.60;;;0.57;;
61036;SDS011;72210;47.076;15.430;2024-02-21T01:36:46;0.70;;;0.60;;
61036;SDS011;72210;47.076;15.430;2024-02-21T01:39:14;0.60;;;0.50;;
61036;SDS011;72210;47.076;15.430;2024-02-21T01:41:44;0.70;;;0.60;;
61036;SDS011;72210;47.076;15.430;2024-02-21T01:44:12;0.60;;;0.50;;
61036;SDS011;72210;47.076;15.430;2024-02-21T01:46:40;0.60;;;0.50;;
61036;SDS011;72210;47.076;15.430;2024-02-21T01:49:08;0.60;;;0.50;;
61036;SDS011;72210;47.076;15.430;2024-02-21T01:51:36;0.68;;;0.50;;
61036;SDS011;72210;47.076;15.430;2024-02-21T01:54:04;0.60;;;0.50;;
61036;SDS011;72210;47.076;15.430;2024-02-21T01:56:33;0.50;;;0.50;;
61036;SDS011;72210;47.076;15.430;2024-02-21T01:59:02;0.50;;;0.50;;
61036;SDS011;72210;47.076;15.430;2024-02-21T02:01:31;0.60;;;0.50;;
61036;SDS011;72210;47.076;15.430;2024-02-21T02:03:59;0.60;;;0.50;;
61036;SDS011;72210;47.076;15.430;2024-02-21T02:06:27;0.52;;;0.50;;
61036;SDS011;72210;47.076;15.430;2024-02-21T02:08:55;0.50;;;0.50;;
61036;SDS011;72210;47.076;15.430;2024-02-21T02:11:25;0.60;;;0.50;;
61036;SDS011;72210;47.076;15.430;2024-02-21T02:13:53;0.50;;;0.50;;
61036;SDS011;72210;47.076;15.430;2024-02-21T02:16:22;0.50;;;0.50;;
61036;SDS011;72210;47.076;15.430;2024-02-21T02:18:50;0.60;;;0.60;;
61036;SDS011;72210;47.076;15.430;2024-02-21T02:21:21;0.60;;;0.57;;
61036;SDS011;72210;47.076;15.430;2024-02-21T02:23:55;0.60;;;0.50;;
61036;SDS011;72210;47.076;15.430;2024-02-21T02:26:23;0.60;;;0.50;;
61036;SDS011;72210;47.076;15.430;2024-02-21T02:28:51;0.82;;;0.70;;
61036;SDS011;72210;47.076;15.430;2024-02-21T02:31:20;0.63;;;0.60;;
61036;SDS011;72210;47.076;15.430;2024-02-21T02:33:48;0.63;;;0.50;;
61036;SDS011;72210;47.076;15.430;2024-02-21T02:36:15;0.60;;;0.50;;
61036;SDS011;72210;47.076;15.430;2024-02-21T02:38:43;0.63;;;0.55;;
61036;SDS011;72210;47.076;15.430;2024-02-21T02:41:12;0.60;;;0.50;;
61036;SDS011;72210;47.076;15.430;2024-02-21T02:43:39;0.50;;;0.50;;
61036;SDS011;72210;47.076;15.430;2024-02-21T02:46:07;0.50;;;0.50;;
61036;SDS011;72210;47.076;15.430;2024-02-21T02:48:34;0.50;;;0.50;;
61036;SDS011;72210;47.076;15.430;2024-02-21T02:51:02;0.50;;;0.50;;
61036;SDS011;72210;47.076;15.430;2024-02-21T02:53:30;0.60;;;0.50;;
61036;SDS011;72210;47.076;15.430;2024-02-21T02:55:58;0.50;;;0.50;;
61036;SDS011;72210;47.076;15.430;2024-02-21T02:58:28;0.50;;;0.50;;
61036;SDS011;72210;47.076;15.430;2024-02-21T03:00:55;0.60;;;0.50;;
61036;SDS011;72210;47.076;15.430;2024-02-21T03:03:23;0.50;;;0.50;;
61036;SDS011;72210;47.076;15.430;2024-02-21T03:05:50;0.50;;;0.50;;
61036;SDS011;72210;47.076;15.430;2024-02-21T03:08:18;0.60;;;0.50;;
61036;SDS011;72210;47.076;15.430;2024-02-21T03:10:46;0.60;;;0.55;;
61036;SDS011;72210;47.076;15.430;2024-02-21T03:13:14;0.57;;;0.50;;
61036;SDS011;72210;47.076;15.430;2024-02-21T03:15:43;0.50;;;0.50;;
61036;SDS011;72210;47.076;15.430;2024-02-21T03:18:11;0.50;;;0.50;;
61036;SDS011;72210;47.076;15.430;2024-02-21T03:20:38;0.60;;;0.50;;
61036;SDS011;72210;47.076;15.430;2024-02-21T03:23:06;0.60;;;0.50;;
61036;SDS011;72210;47.076;15.430;2024-02-21T03:25:33;0.50;;;0.50;;
61036;SDS011;72210;47.076;15.430;2024-02-21T03:28:04;0.50;;;0.50;;
61036;SDS011;72210;47.076;15.430;2024-02-21T03:30:32;0.63;;;0.52;;
61036;SDS011;72210;47.076;15.430;2024-02-21T03:33:01;0.60;;;0.50;;
61036;SDS011;72210;47.076;15.430;2024-02-21T03:35:29;0.50;;;0.50;;
61036;SDS011;72210;47.076;15.430;2024-02-21T03:37:57;0.60;;;0.50;;
61036;SDS011;72210;47.076;15.430;2024-02-21T03:40:24;0.60;;;0.50;;
61036;SDS011;72210;47.076;15.430;2024-02-21T03:42:51;0.60;;;0.50;;
61036;SDS011;72210;47.076;15.430;2024-02-21T03:45:19;0.60;;;0.50;;
61036;SDS011;72210;47.076;15.430;2024-02-21T03:47:47;0.60;;;0.50;;
61036;SDS011;72210;47.076;15.430;2024-02-21T03:50:16;0.50;;;0.50;;
61036;SDS011;72210;47.076;15.430;2024-02-21T03:52:44;0.90;;;0.60;;
61036;SDS011;72210;47.076;15.430;2024-02-21T03:55:12;0.50;;;0.50;;
61036;SDS011;72210;47.076;15.430;2024-02-21T03:57:39;0.50;;;0.40;;
61036;SDS011;72210;47.076;15.430;2024-02-21T04:00:08;0.50;;;0.50;;
61036;SDS011;72210;47.076;15.430;2024-02-21T04:02:35;0.50;;;0.50;;
61036;SDS011;72210;47.076;15.430;2024-02-21T04:05:03;0.70;;;0.60;;
61036;SDS011;72210;47.076;15.430;2024-02-21T04:07:34;0.60;;;0.50;;
61036;SDS011;72210;47.076;15.430;2024-02-21T04:10:02;0.60;;;0.50;;
61036;SDS011;72210;47.076;15.430;2024-02-21T04:12:33;0.60;;;0.50;;
61036;SDS011;72210;47.076;15.430;2024-02-21T04:15:00;0.60;;;0.50;;
61036;SDS011;72210;47.076;15.430;2024-02-21T04:17:28;0.63;;;0.50;;
61036;SDS011;72210;47.076;15.430;2024-02-21T04:20:01;0.50;;;0.50;;
61036;SDS011;72210;47.076;15.430;2024-02-21T04:22:30;0.50;;;0.50;;
61036;SDS011;72210;47.076;15.430;2024-02-21T04:24:59;0.60;;;0.50;;
61036;SDS011;72210;47.076;15.430;2024-02-21T04:27:27;0.60;;;0.50;;
61036;SDS011;72210;47.076;15.430;2024-02-21T04:29:54;0.60;;;0.50;;
61036;SDS011;72210;47.076;15.430;2024-02-21T04:32:24;0.60;;;0.50;;
61036;SDS011;72210;47.076;15.430;2024-02-21T04:34:51;0.55;;;0.50;;
61036;SDS011;72210;47.076;15.430;2024-02-21T04:37:20;0.60;;;0.50;;
61036;SDS011;72210;47.076;15.430;2024-02-21T04:39:47;0.70;;;0.60;;
61036;SDS011;72210;47.076;15.430;2024-02-21T04:42:17;0.60;;;0.50;;
61036;SDS011;72210;47.076;15.430;2024-02-21T04:44:44;0.60;;;0.50;;
61036;SDS011;72210;47.076;15.430;2024-02-21T04:47:12;0.60;;;0.60;;
61036;SDS011;72210;47.076;15.430;2024-02-21T04:49:39;0.50;;;0.50;;
61036;SDS011;72210;47.076;15.430;2024-02-21T04:52:07;0.63;;;0.60;;
61036;SDS011;72210;47.076;15.430;2024-02-21T04:54:34;0.68;;;0.60;;
61036;SDS011;72210;47.076;15.430;2024-02-21T04:57:02;0.60;;;0.50;;
61036;SDS011;72210;47.076;15.430;2024-02-21T04:59:32;0.50;;;0.50;;
61036;SDS011;72210;47.076;15.430;2024-02-21T05:01:59;0.60;;;0.50;;
61036;SDS011;72210;47.076;15.430;2024-02-21T05:04:28;0.60;;;0.52;;
61036;SDS011;72210;47.076;15.430;2024-02-21T05:06:55;0.60;;;0.50;;
61036;SDS011;72210;47.076;15.430;2024-02-21T05:09:23;0.80;;;0.60;;
61036;SDS011;72210;47.076;15.430;2024-02-21T05:11:50;0.50;;;0.50;;
61036;SDS011;72210;47.076;15.430;2024-02-21T05:14:18;0.65;;;0.60;;
61036;SDS011;72210;47.076;15.430;2024-02-21T05:16:47;0.55;;;0.50;;
61036;SDS011;72210;47.076;15.430;2024-02-21T05:19:15;0.60;;;0.50;;
61036;SDS011;72210;47.076;15.430;2024-02-21T05:21:42;0.90;;;0.55;;
61036;SDS011;72210;47.076;15.430;2024-02-21T05:24:11;0.70;;;0.60;;
61036;SDS011;72210;47.076;15.430;2024-02-21T05:26:38;0.60;;;0.50;;
61036;SDS011;72210;47.076;15.430;2024-02-21T05:29:09;0.63;;;0.50;;
61036;SDS011;72210;47.076;15.430;2024-02-21T05:31:54;0.80;;;0.60;;
61036;SDS011;72210;47.076;15.430;2024-02-21T05:34:33;0.75;;;0.60;;
61036;SDS011;72210;47.076;15.430;2024-02-21T05:37:01;0.63;;;0.57;;
61036;SDS011;72210;47.076;15.430;2024-02-21T05:39:29;0.60;;;0.50;;
61036;SDS011;72210;47.076;15.430;2024-02-21T05:42:00;0.60;;;0.50;;
61036;SDS011;72210;47.076;15.430;2024-02-21T05:44:28;0.50;;;0.50;;
61036;SDS011;72210;47.076;15.430;2024-02-21T05:46:59;0.50;;;0.50;;
61036;SDS011;72210;47.076;15.430;2024-02-21T05:49:26;0.50;;;0.50;;
61036;SDS011;72210;47.076;15.430;2024-02-21T05:51:54;0.50;;;0.50;;
61036;SDS011;72210;47.076;15.430;2024-02-21T05:54:21;0.60;;;0.55;;
61036;SDS011;72210;47.076;15.430;2024-02-21T05:56:48;0.60;;;0.60;;
61036;SDS011;72210;47.076;15.430;2024-02-21T05:59:16;0.60;;;0.50;;
61036;SDS011;72210;47.076;15.430;2024-02-21T06:01:55;0.60;;;0.50;;
61036;SDS011;72210;47.076;15.430;2024-02-21T06:04:27;0.60;;;0.60;;
61036;SDS011;72210;47.076;15.430;2024-02-21T06:06:54;0.65;;;0.57;;
61036;SDS011;72210;47.076;15.430;2024-02-21T06:09:22;0.60;;;0.50;;
61036;SDS011;72210;47.076;15.430;2024-02-21T06:11:50;0.60;;;0.50;;
61036;SDS011;72210;47.076;15.430;2024-02-21T06:14:17;0.60;;;0.50;;
61036;SDS011;72210;47.076;15.430;2024-02-21T06:16:44;0.60;;;0.60;;
61036;SDS011;72210;47.076;15.430;2024-02-21T06:19:12;0.60;;;0.50;;
61036;SDS011;72210;47.076;15.430;2024-02-21T06:21:41;0.70;;;0.60;;
61036;SDS011;72210;47.076;15.430;2024-02-21T06:24:08;0.70;;;0.60;;
61036;SDS011;72210;47.076;15.430;2024-02-21T06:26:38;0.70;;;0.60;;
61036;SDS011;72210;47.076;15.430;2024-02-21T06:29:07;0.80;;;0.60;;
61036;SDS011;72210;47.076;15.430;2024-02-21T06:31:36;0.63;;;0.60;;
61036;SDS011;72210;47.076;15.430;2024-02-21T06:34:03;0.90;;;0.60;;
61036;SDS011;72210;47.076;15.430;2024-02-21T06:36:31;0.70;;;0.60;;
61036;SDS011;72210;47.076;15.430;2024-02-21T06:39:01;0.75;;;0.60;;
61036;SDS011;72210;47.076;15.430;2024-02-21T06:41:30;0.60;;;0.60;;
61036;SDS011;72210;47.076;15.430;2024-02-21T06:43:57;0.88;;;0.60;;
61036;SDS011;72210;47.076;15.430;2024-02-21T06:46:25;0.50;;;0.50;;
61036;SDS011;72210;47.076;15.430;2024-02-21T06:48:54;0.60;;;0.50;;
61036;SDS011;72210;47.076;15.430;2024-02-21T06:51:24;0.50;;;0.50;;
61036;SDS011;72210;47.076;15.430;2024-02-21T06:53:52;0.60;;;0.50;;
61036;SDS011;72210;47.076;15.430;2024-02-21T06:56:23;0.60;;;0.50;;
61036;SDS011;72210;47.076;15.430;2024-02-21T06:58:51;0.60;;;0.50;;
61036;SDS011;72210;47.076;15.430;2024-02-21T07:01:18;0.73;;;0.50;;
61036;SDS011;72210;47.076;15.430;2024-02-21T07:03:46;0.60;;;0.50;;
61036;SDS011;72210;47.076;15.430;2024-02-21T07:06:13;0.70;;;0.50;;
61036;SDS011;72210;47.076;15.430;2024-02-21T07:08:41;0.80;;;0.63;;
61036;SDS011;72210;47.076;15.430;2024-02-21T07:11:09;0.70;;;0.60;;
61036;SDS011;72210;47.076;15.430;2024-02-21T07:13:39;0.73;;;0.60;;
61036;SDS011;72210;47.076;15.430;2024-02-21T07:16:07;0.50;;;0.45;;
61036;SDS011;72210;47.076;15.430;2024-02-21T07:18:35;0.60;;;0.50;;
61036;SDS011;72210;47.076;15.430;2024-02-21T07:21:02;1.50;;;0.50;;
61036;SDS011;72210;47.076;15.430;2024-02-21T07:23:30;0.70;;;0.52;;
61036;SDS011;72210;47.076;15.430;2024-02-21T07:25:58;0.60;;;0.50;;
61036;SDS011;72210;47.076;15.430;2024-02-21T07:28:26;0.70;;;0.60;;
61036;SDS011;72210;47.076;15.430;2024-02-21T07:30:55;0.55;;;0.45;;
61036;SDS011;72210;47.076;15.430;2024-02-21T07:33:22;0.60;;;0.50;;
61036;SDS011;72210;47.076;15.430;2024-02-21T07:35:50;0.60;;;0.45;;
61036;SDS011;72210;47.076;15.430;2024-02-21T07:38:17;0.60;;;0.50;;
61036;SDS011;72210;47.076;15.430;2024-02-21T07:40:45;0.60;;;0.50;;
61036;SDS011;72210;47.076;15.430;2024-02-21T07:43:13;0.60;;;0.50;;
61036;SDS011;72210;47.076;15.430;2024-02-21T07:45:40;0.60;;;0.40;;
61036;SDS011;72210;47.076;15.430;2024-02-21T07:48:10;0.50;;;0.50;;
61036;SDS011;72210;47.076;15.430;2024-02-21T07:50:38;0.50;;;0.40;;
61036;SDS011;72210;47.076;15.430;2024-02-21T07:53:05;0.70;;;0.52;;
61036;SDS011;72210;47.076;15.430;2024-02-21T07:55:34;0.57;;;0.50;;
61036;SDS011;72210;47.076;15.430;2024-02-21T07:58:02;0.70;;;0.50;;
61036;SDS011;72210;47.076;15.430;2024-02-21T08:00:30;0.70;;;0.50;;
61036;SDS011;72210;47.076;15.430;2024-02-21T08:02:58;0.50;;;0.40;;
61036;SDS011;72210;47.076;15.430;2024-02-21T08:05:30;0.63;;;0.45;;
61036;SDS011;72210;47.076;15.430;2024-02-21T08:07:57;0.63;;;0.50;;
61036;SDS011;72210;47.076;15.430;2024-02-21T08:10:26;0.60;;;0.50;;
61036;SDS011;72210;47.076;15.430;2024-02-21T08:12:53;0.65;;;0.50;;
61036;SDS011;72210;47.076;15.430;2024-02-21T08:15:21;0.50;;;0.40;;
61036;SDS011;72210;47.076;15.430;2024-02-21T08:17:48;0.73;;;0.60;;
61036;SDS011;72210;47.076;15.430;2024-02-21T08:20:15;0.50;;;0.40;;
61036;SDS011;72210;47.076;15.430;2024-02-21T08:22:45;0.60;;;0.40;;
61036;SDS011;72210;47.076;15.430;2024-02-21T08:25:13;0.60;;;0.40;;
61036;SDS011;72210;47.076;15.430;2024-02-21T08:27:42;0.50;;;0.40;;
61036;SDS011;72210;47.076;15.430;2024-02-21T08:30:10;0.57;;;0.50;;
61036;SDS011;72210;47.076;15.430;2024-02-21T08:32:39;0.40;;;0.40;;
61036;SDS011;72210;47.076;15.430;2024-02-21T08:35:07;0.50;;;0.40;;
61036;SDS011;72210;47.076;15.430;2024-02-21T08:37:35;0.45;;;0.40;;
61036;SDS011;72210;47.076;15.430;2024-02-21T08:40:06;0.60;;;0.40;;
61036;SDS011;72210;47.076;15.430;2024-02-21T08:42:35;0.50;;;0.40;;
61036;SDS011;72210;47.076;15.430;2024-02-21T08:45:05;0.50;;;0.40;;
61036;SDS011;72210;47.076;15.430;2024-02-21T08:47:34;0.50;;;0.40;;
61036;SDS011;72210;47.076;15.430;2024-02-21T08:50:01;0.68;;;0.50;;
61036;SDS011;72210;47.076;15.430;2024-02-21T08:52:44;0.60;;;0.50;;
61036;SDS011;72210;47.076;15.430;2024-02-21T08:55:13;0.60;;;0.50;;
61036;SDS011;72210;47.076;15.430;2024-02-21T08:57:41;0.85;;;0.40;;
61036;SDS011;72210;47.076;15.430;2024-02-21T09:00:09;0.98;;;0.70;;
61036;SDS011;72210;47.076;15.430;2024-02-21T09:02:39;0.60;;;0.50;;
61036;SDS011;72210;47.076;15.430;2024-02-21T09:05:08;0.50;;;0.40;;
61036;SDS011;72210;47.076;15.430;2024-02-21T09:07:36;0.30;;;0.30;;
61036;SDS011;72210;47.076;15.430;2024-02-21T09:10:04;0.30;;;0.30;;
61036;SDS011;72210;47.076;15.430;2024-02-21T09:12:35;0.68;;;0.50;;
61036;SDS011;72210;47.076;15.430;2024-02-21T09:15:02;0.40;;;0.40;;
61036;SDS011;72210;47.076;15.430;2024-02-21T09:17:30;0.50;;;0.40;;
61036;SDS011;72210;47.076;15.430;2024-02-21T09:19:58;0.43;;;0.40;;
61036;SDS011;72210;47.076;15.430;2024-02-21T09:22:27;0.60;;;0.50;;
61036;SDS011;72210;47.076;15.430;2024-02-21T09:24:54;0.30;;;0.30;;
61036;SDS011;72210;47.076;15.430;2024-02-21T09:27:22;0.30;;;0.30;;
61036;SDS011;72210;47.076;15.430;2024-02-21T09:29:51;0.32;;;0.30;;
61036;SDS011;72210;47.076;15.430;2024-02-21T09:32:18;0.32;;;0.30;;
61036;SDS011;72210;47.076;15.430;2024-02-21T09:34:46;0.40;;;0.30;;
61036;SDS011;72210;47.076;15.430;2024-02-21T09:37:14;0.20;;;0.20;;
61036;SDS011;72210;47.076;15.430;2024-02-21T09:39:41;0.40;;;0.30;;
61036;SDS011;72210;47.076;15.430;2024-02-21T09:42:08;0.40;;;0.32;;
61036;SDS011;72210;47.076;15.430;2024-02-21T09:44:40;0.32;;;0.30;;
61036;SDS011;72210;47.076;15.430;2024-02-21T09:47:09;0.40;;;0.30;;
61036;SDS011;72210;47.076;15.430;2024-02-21T09:49:39;0.30;;;0.30;;
61036;SDS011;72210;47.076;15.430;2024-02-21T09:52:08;0.35;;;0.30;;
61036;SDS011;72210;47.076;15.430;2024-02-21T09:54:36;0.50;;;0.40;;
61036;SDS011;72210;47.076;15.430;2024-02-21T09:57:05;0.70;;;0.57;;
61036;SDS011;72210;47.076;15.430;2024-02-21T09:59:35;0.40;;;0.40;;
61036;SDS011;72210;47.076;15.430;2024-02-21T10:02:02;0.30;;;0.30;;
61036;SDS011;72210;47.076;15.430;2024-02-21T10:04:32;0.65;;;0.40;;
61036;SDS011;72210;47.076;15.430;2024-02-21T10:07:00;0.60;;;0.50;;
61036;SDS011;72210;47.076;15.430;2024-02-21T10:09:29;0.32;;;0.30;;
61036;SDS011;72210;47.076;15.430;2024-02-21T10:12:07;0.30;;;0.30;;
61036;SDS011;72210;47.076;15.430;2024-02-21T10:14:35;0.35;;;0.35;;
61036;SDS011;72210;47.076;15.430;2024-02-21T10:17:02;0.30;;;0.30;;
61036;SDS011;72210;47.076;15.430;2024-02-21T10:19:32;1.00;;;0.73;;
61036;SDS011;72210;47.076;15.430;2024-02-21T10:22:00;0.40;;;0.40;;
61036;SDS011;72210;47.076;15.430;2024-02-21T10:24:28;0.30;;;0.30;;
61036;SDS011;72210;47.076;15.430;2024-02-21T10:27:01;0.50;;;0.40;;
61036;SDS011;72210;47.076;15.430;2024-02-21T10:29:31;0.70;;;0.60;;
61036;SDS011;72210;47.076;15.430;2024-02-21T10:32:05;0.80;;;0.60;;
61036;SDS011;72210;47.076;15.430;2024-02-21T10:34:37;0.57;;;0.50;;
61036;SDS011;72210;47.076;15.430;2024-02-21T10:37:06;0.25;;;0.20;;
61036;SDS011;72210;47.076;15.430;2024-02-21T10:39:34;0.30;;;0.20;;
61036;SDS011;72210;47.076;15.430;2024-02-21T10:42:03;0.20;;;0.20;;
61036;SDS011;72210;47.076;15.430;2024-02-21T10:44:31;0.20;;;0.20;;
61036;SDS011;72210;47.076;15.430;2024-02-21T10:47:00;0.40;;;0.30;;
61036;SDS011;72210;47.076;15.430;2024-02-21T10:49:36;0.30;;;0.30;;
61036;SDS011;72210;47.076;15.430;2024-02-21T10:52:06;0.68;;;0.50;;
61036;SDS011;72210;47.076;15.430;2024-02-21T10:54:43;0.50;;;0.40;;
61036;SDS011;72210;47.076;15.430;2024-02-21T10:57:14;0.60;;;0.50;;
61036;SDS011;72210;47.076;15.430;2024-02-21T10:59:44;0.50;;;0.45;;
61036;SDS011;72210;47.076;15.430;2024-02-21T11:02:16;0.43;;;0.40;;
61036;SDS011;72210;47.076;15.430;2024-02-21T11:04:45;0.30;;;0.20;;
61036;SDS011;72210;47.076;15.430;2024-02-21T11:07:14;0.30;;;0.30;;
61036;SDS011;72210;47.076;15.430;2024-02-21T11:09:50;0.20;;;0.20;;
61036;SDS011;72210;47.076;15.430;2024-02-21T11:12:19;0.32;;;0.30;;
61036;SDS011;72210;47.076;15.430;2024-02-21T11:14:49;0.30;;;0.20;;
61036;SDS011;72210;47.076;15.430;2024-02-21T11:17:17;0.30;;;0.30;;
61036;SDS011;72210;47.076;15.430;2024-02-21T11:19:48;0.20;;;0.20;;
61036;SDS011;72210;47.076;15.430;2024-02-21T11:22:16;0.30;;;0.30;;
61036;SDS011;72210;47.076;15.430;2024-02-21T11:24:44;0.22;;;0.20;;
61036;SDS011;72210;47.076;15.430;2024-02-21T11:27:12;0.40;;;0.32;;
61036;SDS011;72210;47.076;15.430;2024-02-21T11:29:42;0.30;;;0.30;;
61036;SDS011;72210;47.076;15.430;2024-02-21T11:32:10;0.35;;;0.30;;
61036;SDS011;72210;47.076;15.430;2024-02-21T11:34:38;0.30;;;0.30;;
61036;SDS011;72210;47.076;15.430;2024-02-21T11:37:14;0.30;;;0.30;;
61036;SDS011;72210;47.076;15.430;2024-02-21T11:39:41;0.10;;;0.10;;
61036;SDS011;72210;47.076;15.430;2024-02-21T11:42:09;0.20;;;0.20;;
61036;SDS011;72210;47.076;15.430;2024-02-21T11:44:37;0.10;;;0.10;;
61036;SDS011;72210;47.076;15.430;2024-02-21T11:47:05;0.30;;;0.22;;
61036;SDS011;72210;47.076;15.430;2024-02-21T11:49:35;0.10;;;0.10;;
61036;SDS011;72210;47.076;15.430;2024-02-21T11:52:04;0.10;;;0.10;;
61036;SDS011;72210;47.076;15.430;2024-02-21T11:54:34;0.20;;;0.20;;
61036;SDS011;72210;47.076;15.430;2024-02-21T11:57:02;0.10;;;0.10;;
61036;SDS011;72210;47.076;15.430;2024-02-21T11:59:30;0.17;;;0.17;;
61036;SDS011;72210;47.076;15.430;2024-02-21T12:01:58;0.20;;;0.20;;
61036;SDS011;72210;47.076;15.430;2024-02-21T12:04:27;0.30;;;0.20;;
61036;SDS011;72210;47.076;15.430;2024-02-21T12:06:57;0.22;;;0.20;;
61036;SDS011;72210;47.076;15.430;2024-02-21T12:09:25;0.20;;;0.20;;
61036;SDS011;72210;47.076;15.430;2024-02-21T12:12:01;0.30;;;0.20;;
61036;SDS011;72210;47.076;15.430;2024-02-21T12:14:29;0.20;;;0.20;;
61036;SDS011;72210;47.076;15.430;2024-02-21T12:16:57;0.35;;;0.10;;
61036;SDS011;72210;47.076;15.430;2024-02-21T12:19:25;0.40;;;0.30;;
61036;SDS011;72210;47.076;15.430;2024-02-21T12:21:55;0.30;;;0.20;;
61036;SDS011;72210;47.076;15.430;2024-02-21T12:24:23;0.30;;;0.20;;
61036;SDS011;72210;47.076;15.430;2024-02-21T12:26:52;0.20;;;0.20;;
61036;SDS011;72210;47.076;15.430;2024-02-21T12:29:22;0.20;;;0.20;;
61036;SDS011;72210;47.076;15.430;2024-02-21T12:31:50;0.20;;;0.20;;
61036;SDS011;72210;47.076;15.430;2024-02-21T12:34:18;0.40;;;0.30;;
61036;SDS011;72210;47.076;15.430;2024-02-21T12:37:01;0.30;;;0.20;;
61036;SDS011;72210;47.076;15.430;2024-02-21T12:39:30;0.32;;;0.20;;
61036;SDS011;72210;47.076;15.430;2024-02-21T12:41:58;0.38;;;0.30;;
61036;SDS011;72210;47.076;15.430;2024-02-21T12:44:27;0.30;;;0.20;;
61036;SDS011;72210;47.076;15.430;2024-02-21T12:46:55;0.50;;;0.40;;
61036;SDS011;72210;47.076;15.430;2024-02-21T12:49:23;0.30;;;0.20;;
61036;SDS011;72210;47.076;15.430;2024-02-21T12:51:51;0.30;;;0.20;;
61036;SDS011;72210;47.076;15.430;2024-02-21T12:54:18;0.20;;;0.20;;
61036;SDS011;72210;47.076;15.430;2024-02-21T12:56:46;0.20;;;0.20;;
61036;SDS011;72210;47.076;15.430;2024-02-21T12:59:13;0.20;;;0.20;;
61036;SDS011;72210;47.076;15.430;2024-02-21T13:01:43;0.35;;;0.30;;
61036;SDS011;72210;47.076;15.430;2024-02-21T13:04:11;0.20;;;0.20;;
61036;SDS011;72210;47.076;15.430;2024-02-21T13:06:40;0.30;;;0.25;;
61036;SDS011;72210;47.076;15.430;2024-02-21T13:09:07;0.30;;;0.30;;
61036;SDS011;72210;47.076;15.430;2024-02-21T13:11:35;0.20;;;0.20;;
61036;SDS011;72210;47.076;15.430;2024-02-21T13:14:04;0.40;;;0.30;;
61036;SDS011;72210;47.076;15.430;2024-02-21T13:16:32;0.30;;;0.30;;
61036;SDS011;72210;47.076;15.430;2024-02-21T13:19:01;0.30;;;0.20;;
61036;SDS011;72210;47.076;15.430;2024-02-21T13:21:28;0.30;;;0.20;;
61036;SDS011;72210;47.076;15.430;2024-02-21T13:23:55;0.30;;;0.20;;
61036;SDS011;72210;47.076;15.430;2024-02-21T13:26:23;0.38;;;0.30;;
61036;SDS011;72210;47.076;15.430;2024-02-21T13:28:50;0.57;;;0.30;;
61036;SDS011;72210;47.076;15.430;2024-02-21T13:31:17;0.30;;;0.28;;
61036;SDS011;72210;47.076;15.430;2024-02-21T13:33:47;0.30;;;0.20;;
61036;SDS011;72210;47.076;15.430;2024-02-21T13:36:16;0.30;;;0.30;;
61036;SDS011;72210;47.076;15.430;2024-02-21T13:38:43;0.40;;;0.30;;
61036;SDS011;72210;47.076;15.430;2024-02-21T13:41:11;0.30;;;0.30;;
61036;SDS011;72210;47.076;15.430;2024-02-21T13:43:38;0.30;;;0.25;;
61036;SDS011;72210;47.076;15.430;2024-02-21T13:46:06;0.30;;;0.30;;
61036;SDS011;72210;47.076;15.430;2024-02-21T13:48:34;0.30;;;0.25;;
61036;SDS011;72210;47.076;15.430;2024-02-21T13:51:02;0.20;;;0.20;;
61036;SDS011;72210;47.076;15.430;2024-02-21T13:53:31;0.30;;;0.28;;
61036;SDS011;72210;47.076;15.430;2024-02-21T13:55:59;0.30;;;0.20;;
61036;SDS011;72210;47.076;15.430;2024-02-21T13:58:26;0.30;;;0.30;;
61036;SDS011;72210;47.076;15.430;2024-02-21T14:00:55;0.32;;;0.20;;
61036;SDS011;72210;47.076;15.430;2024-02-21T14:03:23;0.30;;;0.30;;
61036;SDS011;72210;47.076;15.430;2024-02-21T14:05:50;0.30;;;0.20;;
61036;SDS011;72210;47.076;15.430;2024-02-21T14:08:18;0.30;;;0.20;;
61036;SDS011;72210;47.076;15.430;2024-02-21T14:10:47;0.20;;;0.20;;
61036;SDS011;72210;47.076;15.430;2024-02-21T14:13:14;0.20;;;0.20;;
61036;SDS011;72210;47.076;15.430;2024-02-21T14:15:44;0.30;;;0.25;;
61036;SDS011;72210;47.076;15.430;2024-02-21T14:18:11;0.40;;;0.40;;
61036;SDS011;72210;47.076;15.430;2024-02-21T14:20:39;0.30;;;0.20;;
61036;SDS011;72210;47.076;15.430;2024-02-21T14:23:06;0.30;;;0.20;;
61036;SDS011;72210;47.076;15.430;2024-02-21T14:25:33;0.30;;;0.20;;
61036;SDS011;72210;47.076;15.430;2024-02-21T14:28:03;0.30;;;0.25;;
61036;SDS011;72210;47.076;15.430;2024-02-21T14:30:30;0.20;;;0.20;;
61036;SDS011;72210;47.076;15.430;2024-02-21T14:32:59;0.30;;;0.20;;
61036;SDS011;72210;47.076;15.430;2024-02-21T14:35:26;0.30;;;0.20;;
61036;SDS011;72210;47.076;15.430;2024-02-21T14:37:54;0.30;;;0.30;;
61036;SDS011;72210;47.076;15.430;2024-02-21T14:40:21;0.30;;;0.20;;